sensor_id;sensor_type;location;lat;lon;timestamp;pressure;altitude;pressure_sealevel;temperature;humidity
46303;BME280;32029;51.358;5.628;2023-06-26T00:01:04;100949.47;;;26.36;64.36
46303;BME280;32029;51.358;5.628;2023-06-26T00:03:32;100956.75;;;26.42;64.44
46303;BME280;32029;51.358;5.628;2023-06-26T00:05:59;100981.44;;;26.55;64.32
46303;BME280;32029;51.358;5.628;2023-06-26T00:08:28;100964.66;;;26.45;64.53
46303;BME280;32029;51.358;5.628;2023-06-26T00:10:56;100934.38;;;26.22;64.30
46303;BME280;32029;51.358;5.628;2023-06-26T00:13:23;100986.28;;;26.50;64.86
46303;BME280;32029;51.358;5.628;2023-06-26T00:15:51;100954.31;;;26.25;64.45
46303;BME280;32029;51.358;5.628;2023-06-26T00:18:19;100957.72;;;26.22;64.35
46303;BME280;32029;51.358;5.628;2023-06-26T00:20:47;100975.66;;;26.31;64.51
46303;BME280;32029;51.358;5.628;2023-06-26T00:23:18;100990.84;;;26.30;64.74
46303;BME280;32029;51.358;5.628;2023-06-26T00:25:46;100956.59;;;26.13;63.92
46303;BME280;32029;51.358;5.628;2023-06-26T00:28:14;100984.38;;;26.30;64.17
46303;BME280;32029;51.358;5.628;2023-06-26T00:30:41;100985.00;;;26.22;63.54
46303;BME280;32029;51.358;5.628;2023-06-26T00:33:08;100932.81;;;25.95;63.88
46303;BME280;32029;51.358;5.628;2023-06-26T00:35:36;100962.84;;;26.05;63.48
46303;BME280;32029;51.358;5.628;2023-06-26T00:38:04;100938.44;;;25.95;63.45
46303;BME280;32029;51.358;5.628;2023-06-26T00:40:31;100934.81;;;25.84;63.36
46303;BME280;32029;51.358;5.628;2023-06-26T00:42:58;100981.38;;;26.11;63.26
46303;BME280;32029;51.358;5.628;2023-06-26T00:45:26;100972.44;;;25.99;62.92
46303;BME280;32029;51.358;5.628;2023-06-26T00:47:53;100970.16;;;26.01;63.44
46303;BME280;32029;51.358;5.628;2023-06-26T00:50:20;100974.69;;;25.92;62.81
46303;BME280;32029;51.358;5.628;2023-06-26T00:52:47;100955.34;;;25.80;63.08
46303;BME280;32029;51.358;5.628;2023-06-26T00:55:14;100959.53;;;25.77;63.33
46303;BME280;32029;51.358;5.628;2023-06-26T00:57:41;100963.78;;;25.80;63.23
46303;BME280;32029;51.358;5.628;2023-06-26T01:00:08;100973.03;;;25.75;63.45
46303;BME280;32029;51.358;5.628;2023-06-26T01:02:36;100980.63;;;25.80;63.38
46303;BME280;32029;51.358;5.628;2023-06-26T01:05:06;100964.63;;;25.65;63.32
46303;BME280;32029;51.358;5.628;2023-06-26T01:07:35;100964.66;;;25.60;63.72
46303;BME280;32029;51.358;5.628;2023-06-26T01:10:07;100953.97;;;25.47;63.69
46303;BME280;32029;51.358;5.628;2023-06-26T01:12:35;100977.56;;;25.51;63.51
46303;BME280;32029;51.358;5.628;2023-06-26T01:15:03;100989.09;;;25.59;64.12
46303;BME280;32029;51.358;5.628;2023-06-26T01:17:30;100975.06;;;25.39;64.08
46303;BME280;32029;51.358;5.628;2023-06-26T01:19:59;100988.56;;;25.37;63.62
46303;BME280;32029;51.358;5.628;2023-06-26T01:25:41;100999.50;;;25.44;63.35
46303;BME280;32029;51.358;5.628;2023-06-26T01:28:11;100963.00;;;25.18;63.30
46303;BME280;32029;51.358;5.628;2023-06-26T01:30:42;100981.25;;;25.26;63.42
46303;BME280;32029;51.358;5.628;2023-06-26T01:33:10;100994.44;;;25.30;63.50
46303;BME280;32029;51.358;5.628;2023-06-26T01:35:37;100989.97;;;25.24;63.47
46303;BME280;32029;51.358;5.628;2023-06-26T01:38:17;101007.94;;;25.33;63.65
46303;BME280;32029;51.358;5.628;2023-06-26T01:40:44;101001.50;;;25.28;63.67
46303;BME280;32029;51.358;5.628;2023-06-26T01:43:19;100992.22;;;25.22;63.31
46303;BME280;32029;51.358;5.628;2023-06-26T01:45:50;100964.66;;;24.99;63.76
46303;BME280;32029;51.358;5.628;2023-06-26T01:48:23;100981.53;;;25.09;63.46
46303;BME280;32029;51.358;5.628;2023-06-26T01:50:51;101015.78;;;25.21;63.21
46303;BME280;32029;51.358;5.628;2023-06-26T01:53:21;101000.34;;;25.08;63.51
46303;BME280;32029;51.358;5.628;2023-06-26T01:55:53;100994.41;;;25.00;63.45
46303;BME280;32029;51.358;5.628;2023-06-26T01:58:24;101025.91;;;25.17;63.45
46303;BME280;32029;51.358;5.628;2023-06-26T02:00:51;101006.75;;;24.99;63.54
46303;BME280;32029;51.358;5.628;2023-06-26T02:03:19;101019.13;;;24.98;63.90
46303;BME280;32029;51.358;5.628;2023-06-26T02:05:46;101039.06;;;25.01;64.11
46303;BME280;32029;51.358;5.628;2023-06-26T02:08:14;101006.75;;;24.83;63.84
46303;BME280;32029;51.358;5.628;2023-06-26T02:10:41;101046.34;;;24.97;64.36
46303;BME280;32029;51.358;5.628;2023-06-26T02:13:08;101002.78;;;24.69;64.41
46303;BME280;32029;51.358;5.628;2023-06-26T02:15:35;101048.88;;;24.93;64.43
46303;BME280;32029;51.358;5.628;2023-06-26T02:18:02;101023.84;;;24.77;64.12
46303;BME280;32029;51.358;5.628;2023-06-26T02:20:28;101049.66;;;24.84;64.70
46303;BME280;32029;51.358;5.628;2023-06-26T02:22:55;101044.91;;;24.74;64.65
46303;BME280;32029;51.358;5.628;2023-06-26T02:25:22;101045.69;;;24.64;64.90
46303;BME280;32029;51.358;5.628;2023-06-26T02:27:50;101030.22;;;24.52;64.91
46303;BME280;32029;51.358;5.628;2023-06-26T02:30:17;101045.97;;;24.58;64.62
46303;BME280;32029;51.358;5.628;2023-06-26T02:32:44;101017.78;;;24.32;64.55
46303;BME280;32029;51.358;5.628;2023-06-26T02:35:12;101052.97;;;24.50;64.88
46303;BME280;32029;51.358;5.628;2023-06-26T02:37:39;101051.81;;;24.46;64.48
46303;BME280;32029;51.358;5.628;2023-06-26T02:40:06;101034.31;;;24.29;64.85
46303;BME280;32029;51.358;5.628;2023-06-26T02:42:34;101058.81;;;24.38;64.69
46303;BME280;32029;51.358;5.628;2023-06-26T02:45:03;101030.63;;;24.18;64.42
46303;BME280;32029;51.358;5.628;2023-06-26T02:47:30;101043.56;;;24.24;64.62
46303;BME280;32029;51.358;5.628;2023-06-26T02:49:58;101057.59;;;24.29;64.87
46303;BME280;32029;51.358;5.628;2023-06-26T02:52:28;101044.94;;;24.21;64.51
46303;BME280;32029;51.358;5.628;2023-06-26T02:54:55;101040.38;;;24.10;65.18
46303;BME280;32029;51.358;5.628;2023-06-26T02:57:23;101048.53;;;24.07;64.93
46303;BME280;32029;51.358;5.628;2023-06-26T02:59:51;101039.50;;;24.00;65.45
46303;BME280;32029;51.358;5.628;2023-06-26T03:02:18;101041.47;;;23.99;65.02
46303;BME280;32029;51.358;5.628;2023-06-26T03:04:46;101074.84;;;24.06;65.42
46303;BME280;32029;51.358;5.628;2023-06-26T03:07:14;101051.72;;;23.83;64.84
46303;BME280;32029;51.358;5.628;2023-06-26T03:09:42;101080.66;;;23.94;64.77
46303;BME280;32029;51.358;5.628;2023-06-26T03:12:11;101080.84;;;23.82;65.22
46303;BME280;32029;51.358;5.628;2023-06-26T03:14:38;101051.00;;;23.61;65.43
46303;BME280;32029;51.358;5.628;2023-06-26T03:17:07;101075.44;;;23.70;64.58
46303;BME280;32029;51.358;5.628;2023-06-26T03:19:35;101100.13;;;23.74;64.52
46303;BME280;32029;51.358;5.628;2023-06-26T03:22:03;101067.72;;;23.56;64.96
46303;BME280;32029;51.358;5.628;2023-06-26T03:24:31;101072.19;;;23.52;65.00
46303;BME280;32029;51.358;5.628;2023-06-26T03:27:00;101088.56;;;23.65;65.58
46303;BME280;32029;51.358;5.628;2023-06-26T03:29:28;101073.84;;;23.47;65.15
46303;BME280;32029;51.358;5.628;2023-06-26T03:31:57;101070.47;;;23.45;65.36
46303;BME280;32029;51.358;5.628;2023-06-26T03:34:26;101077.22;;;23.50;65.39
46303;BME280;32029;51.358;5.628;2023-06-26T03:36:54;101104.88;;;23.68;65.53
46303;BME280;32029;51.358;5.628;2023-06-26T03:39:22;101092.47;;;23.64;65.88
46303;BME280;32029;51.358;5.628;2023-06-26T03:41:49;101081.75;;;23.56;65.82
46303;BME280;32029;51.358;5.628;2023-06-26T03:44:17;101093.66;;;23.68;65.65
46303;BME280;32029;51.358;5.628;2023-06-26T03:46:44;101111.34;;;23.74;65.64
46303;BME280;32029;51.358;5.628;2023-06-26T03:49:12;101100.88;;;23.64;65.50
46303;BME280;32029;51.358;5.628;2023-06-26T03:51:40;101084.50;;;23.51;65.43
46303;BME280;32029;51.358;5.628;2023-06-26T03:54:07;101105.94;;;23.67;65.68
46303;BME280;32029;51.358;5.628;2023-06-26T03:56:34;101096.22;;;23.47;65.68
46303;BME280;32029;51.358;5.628;2023-06-26T03:59:02;101092.28;;;23.43;65.57
46303;BME280;32029;51.358;5.628;2023-06-26T04:01:30;101119.53;;;23.53;65.63
46303;BME280;32029;51.358;5.628;2023-06-26T04:04:00;101123.72;;;23.51;66.17
46303;BME280;32029;51.358;5.628;2023-06-26T04:06:27;101110.72;;;23.39;65.93
46303;BME280;32029;51.358;5.628;2023-06-26T04:08:55;101080.28;;;23.16;66.00
46303;BME280;32029;51.358;5.628;2023-06-26T04:11:23;101110.00;;;23.22;66.47
46303;BME280;32029;51.358;5.628;2023-06-26T04:13:52;101101.28;;;23.18;66.33
46303;BME280;32029;51.358;5.628;2023-06-26T04:16:21;101127.16;;;23.31;66.15
46303;BME280;32029;51.358;5.628;2023-06-26T04:18:52;101112.44;;;23.13;66.39
46303;BME280;32029;51.358;5.628;2023-06-26T04:21:20;101117.72;;;23.10;66.82
46303;BME280;32029;51.358;5.628;2023-06-26T04:23:48;101109.50;;;22.98;66.98
46303;BME280;32029;51.358;5.628;2023-06-26T04:26:15;101134.75;;;23.08;67.32
46303;BME280;32029;51.358;5.628;2023-06-26T04:28:43;101132.81;;;23.09;67.36
46303;BME280;32029;51.358;5.628;2023-06-26T04:31:11;101124.38;;;23.04;67.61
46303;BME280;32029;51.358;5.628;2023-06-26T04:33:38;101134.19;;;23.06;67.94
46303;BME280;32029;51.358;5.628;2023-06-26T04:36:06;101132.13;;;22.96;68.85
46303;BME280;32029;51.358;5.628;2023-06-26T04:38:34;101140.84;;;23.00;69.09
46303;BME280;32029;51.358;5.628;2023-06-26T04:41:02;101130.34;;;22.90;69.05
46303;BME280;32029;51.358;5.628;2023-06-26T04:43:29;101146.09;;;22.96;69.89
46303;BME280;32029;51.358;5.628;2023-06-26T04:45:56;101158.97;;;22.97;69.91
46303;BME280;32029;51.358;5.628;2023-06-26T04:48:24;101159.84;;;22.98;69.99
46303;BME280;32029;51.358;5.628;2023-06-26T04:50:52;101155.66;;;23.01;70.22
46303;BME280;32029;51.358;5.628;2023-06-26T04:53:23;101157.81;;;22.93;70.48
46303;BME280;32029;51.358;5.628;2023-06-26T04:55:52;101147.84;;;22.81;71.31
46303;BME280;32029;51.358;5.628;2023-06-26T04:58:19;101152.59;;;22.80;71.55
46303;BME280;32029;51.358;5.628;2023-06-26T05:00:47;101150.66;;;22.81;71.93
46303;BME280;32029;51.358;5.628;2023-06-26T05:03:16;101190.34;;;22.99;72.14
46303;BME280;32029;51.358;5.628;2023-06-26T05:05:44;101184.72;;;22.94;72.54
46303;BME280;32029;51.358;5.628;2023-06-26T05:08:17;101189.25;;;23.01;72.63
46303;BME280;32029;51.358;5.628;2023-06-26T05:10:45;101180.28;;;22.98;72.92
46303;BME280;32029;51.358;5.628;2023-06-26T05:13:15;101184.25;;;23.03;72.98
46303;BME280;32029;51.358;5.628;2023-06-26T05:16:29;101190.41;;;23.05;73.42
46303;BME280;32029;51.358;5.628;2023-06-26T05:18:58;101153.72;;;22.79;73.36
46303;BME280;32029;51.358;5.628;2023-06-26T05:21:34;101192.38;;;23.04;73.38
46303;BME280;32029;51.358;5.628;2023-06-26T05:24:07;101189.31;;;23.06;73.37
46303;BME280;32029;51.358;5.628;2023-06-26T05:26:34;101181.38;;;22.97;73.36
46303;BME280;32029;51.358;5.628;2023-06-26T05:29:03;101178.00;;;22.95;72.85
46303;BME280;32029;51.358;5.628;2023-06-26T05:31:32;101201.88;;;23.03;72.82
46303;BME280;32029;51.358;5.628;2023-06-26T05:34:03;101202.72;;;23.04;72.92
46303;BME280;32029;51.358;5.628;2023-06-26T05:36:33;101193.75;;;23.02;73.11
46303;BME280;32029;51.358;5.628;2023-06-26T05:39:02;101201.09;;;23.08;72.26
46303;BME280;32029;51.358;5.628;2023-06-26T05:41:30;101172.50;;;22.84;71.81
46303;BME280;32029;51.358;5.628;2023-06-26T05:43:58;101212.22;;;23.03;72.25
46303;BME280;32029;51.358;5.628;2023-06-26T05:46:26;101219.56;;;23.09;72.75
46303;BME280;32029;51.358;5.628;2023-06-26T05:48:53;101230.84;;;23.14;72.83
46303;BME280;32029;51.358;5.628;2023-06-26T05:51:21;101219.66;;;23.14;72.53
46303;BME280;32029;51.358;5.628;2023-06-26T05:53:49;101220.16;;;23.11;71.02
46303;BME280;32029;51.358;5.628;2023-06-26T05:56:17;101213.50;;;23.17;70.64
46303;BME280;32029;51.358;5.628;2023-06-26T05:58:46;101209.44;;;23.03;71.11
46303;BME280;32029;51.358;5.628;2023-06-26T06:01:14;101238.31;;;23.08;70.98
46303;BME280;32029;51.358;5.628;2023-06-26T06:03:42;101215.72;;;22.93;71.66
46303;BME280;32029;51.358;5.628;2023-06-26T06:06:10;101233.78;;;23.02;70.98
46303;BME280;32029;51.358;5.628;2023-06-26T06:08:38;101226.50;;;22.84;71.26
46303;BME280;32029;51.358;5.628;2023-06-26T06:11:05;101241.75;;;22.93;71.26
46303;BME280;32029;51.358;5.628;2023-06-26T06:13:31;101257.47;;;22.94;70.98
46303;BME280;32029;51.358;5.628;2023-06-26T06:15:59;101208.00;;;22.61;70.08
46303;BME280;32029;51.358;5.628;2023-06-26T06:18:27;101259.06;;;22.90;70.80
46303;BME280;32029;51.358;5.628;2023-06-26T06:20:53;101260.50;;;22.93;70.54
46303;BME280;32029;51.358;5.628;2023-06-26T06:23:21;101263.81;;;22.90;71.12
46303;BME280;32029;51.358;5.628;2023-06-26T06:25:49;101275.66;;;22.97;70.63
46303;BME280;32029;51.358;5.628;2023-06-26T06:28:17;101269.72;;;22.93;70.33
46303;BME280;32029;51.358;5.628;2023-06-26T06:30:44;101297.19;;;22.96;70.67
46303;BME280;32029;51.358;5.628;2023-06-26T06:33:11;101285.16;;;22.96;70.51
46303;BME280;32029;51.358;5.628;2023-06-26T06:35:38;101292.78;;;23.01;71.01
46303;BME280;32029;51.358;5.628;2023-06-26T06:38:06;101257.22;;;22.79;70.55
46303;BME280;32029;51.358;5.628;2023-06-26T06:40:34;101275.31;;;22.93;70.89
46303;BME280;32029;51.358;5.628;2023-06-26T06:43:01;101255.41;;;22.90;70.83
46303;BME280;32029;51.358;5.628;2023-06-26T06:45:29;101257.78;;;22.98;71.01
46303;BME280;32029;51.358;5.628;2023-06-26T06:47:56;101277.31;;;23.15;70.58
46303;BME280;32029;51.358;5.628;2023-06-26T06:50:23;101272.81;;;23.14;70.15
46303;BME280;32029;51.358;5.628;2023-06-26T06:52:50;101283.88;;;23.26;69.76
46303;BME280;32029;51.358;5.628;2023-06-26T06:55:16;101283.56;;;23.22;69.67
46303;BME280;32029;51.358;5.628;2023-06-26T06:57:44;101290.97;;;23.33;70.46
46303;BME280;32029;51.358;5.628;2023-06-26T07:00:12;101275.22;;;23.27;69.82
46303;BME280;32029;51.358;5.628;2023-06-26T07:02:43;101310.78;;;23.48;69.48
46303;BME280;32029;51.358;5.628;2023-06-26T07:05:10;101311.09;;;23.52;69.04
46303;BME280;32029;51.358;5.628;2023-06-26T07:07:37;101262.34;;;23.26;68.64
46303;BME280;32029;51.358;5.628;2023-06-26T07:10:10;101307.19;;;23.53;68.76
46303;BME280;32029;51.358;5.628;2023-06-26T07:12:39;101313.94;;;23.57;68.02
46303;BME280;32029;51.358;5.628;2023-06-26T07:15:07;101309.19;;;23.58;68.83
46303;BME280;32029;51.358;5.628;2023-06-26T07:17:34;101306.34;;;23.53;68.14
46303;BME280;32029;51.358;5.628;2023-06-26T07:20:02;101338.84;;;23.76;67.24
46303;BME280;32029;51.358;5.628;2023-06-26T07:22:34;101318.84;;;23.67;67.12
46303;BME280;32029;51.358;5.628;2023-06-26T07:25:01;101335.50;;;23.79;67.20
46303;BME280;32029;51.358;5.628;2023-06-26T07:27:28;101305.06;;;23.65;66.17
46303;BME280;32029;51.358;5.628;2023-06-26T07:29:54;101316.34;;;23.70;66.02
46303;BME280;32029;51.358;5.628;2023-06-26T07:32:21;101331.91;;;23.83;66.41
46303;BME280;32029;51.358;5.628;2023-06-26T07:34:48;101346.66;;;24.01;66.58
46303;BME280;32029;51.358;5.628;2023-06-26T07:37:15;101344.16;;;23.99;66.22
46303;BME280;32029;51.358;5.628;2023-06-26T07:39:42;101331.97;;;24.15;66.12
46303;BME280;32029;51.358;5.628;2023-06-26T07:42:09;101344.59;;;24.45;65.72
46303;BME280;32029;51.358;5.628;2023-06-26T07:44:37;101334.91;;;24.58;63.88
46303;BME280;32029;51.358;5.628;2023-06-26T07:47:04;101345.97;;;24.80;63.85
46303;BME280;32029;51.358;5.628;2023-06-26T07:49:30;101338.72;;;24.84;62.80
46303;BME280;32029;51.358;5.628;2023-06-26T07:51:57;101363.81;;;25.01;62.23
46303;BME280;32029;51.358;5.628;2023-06-26T07:54:25;101369.25;;;25.12;62.05
46303;BME280;32029;51.358;5.628;2023-06-26T07:57:03;101349.50;;;25.02;61.30
46303;BME280;32029;51.358;5.628;2023-06-26T07:59:31;101350.88;;;25.00;61.55
46303;BME280;32029;51.358;5.628;2023-06-26T08:01:58;101371.25;;;25.17;61.21
46303;BME280;32029;51.358;5.628;2023-06-26T08:04:27;101367.22;;;25.08;60.63
46303;BME280;32029;51.358;5.628;2023-06-26T08:06:56;101364.34;;;24.98;60.80
46303;BME280;32029;51.358;5.628;2023-06-26T08:09:26;101398.66;;;25.05;61.21
46303;BME280;32029;51.358;5.628;2023-06-26T08:11:53;101384.69;;;25.15;60.93
46303;BME280;32029;51.358;5.628;2023-06-26T08:14:21;101382.72;;;25.15;61.29
46303;BME280;32029;51.358;5.628;2023-06-26T08:16:49;101378.00;;;25.16;60.88
46303;BME280;32029;51.358;5.628;2023-06-26T08:19:16;101379.63;;;25.12;60.79
46303;BME280;32029;51.358;5.628;2023-06-26T08:21:44;101389.25;;;25.21;60.64
46303;BME280;32029;51.358;5.628;2023-06-26T08:24:12;101343.59;;;24.99;60.24
46303;BME280;32029;51.358;5.628;2023-06-26T08:26:39;101382.47;;;25.17;60.69
46303;BME280;32029;51.358;5.628;2023-06-26T08:29:07;101388.72;;;25.29;60.45
46303;BME280;32029;51.358;5.628;2023-06-26T08:31:35;101388.72;;;25.29;59.79
46303;BME280;32029;51.358;5.628;2023-06-26T08:34:04;101373.31;;;25.32;59.89
46303;BME280;32029;51.358;5.628;2023-06-26T08:36:32;101367.94;;;25.30;58.47
46303;BME280;32029;51.358;5.628;2023-06-26T08:39:00;101361.78;;;25.28;58.57
46303;BME280;32029;51.358;5.628;2023-06-26T08:41:28;101379.84;;;25.48;58.53
46303;BME280;32029;51.358;5.628;2023-06-26T08:43:54;101408.56;;;25.70;58.57
46303;BME280;32029;51.358;5.628;2023-06-26T08:46:22;101406.91;;;25.74;56.53
46303;BME280;32029;51.358;5.628;2023-06-26T08:52:01;101391.63;;;25.45;54.16
46303;BME280;32029;51.358;5.628;2023-06-26T08:54:34;101420.31;;;25.52;53.16
46303;BME280;32029;51.358;5.628;2023-06-26T08:57:04;101409.59;;;25.44;53.76
46303;BME280;32029;51.358;5.628;2023-06-26T08:59:33;101393.81;;;25.37;51.95
46303;BME280;32029;51.358;5.628;2023-06-26T09:02:00;101421.38;;;25.40;52.35
46303;BME280;32029;51.358;5.628;2023-06-26T09:04:26;101428.16;;;25.55;52.15
46303;BME280;32029;51.358;5.628;2023-06-26T09:06:54;101391.31;;;25.36;52.88
46303;BME280;32029;51.358;5.628;2023-06-26T09:09:22;101414.34;;;25.43;53.02
46303;BME280;32029;51.358;5.628;2023-06-26T09:11:50;101429.88;;;25.56;53.58
46303;BME280;32029;51.358;5.628;2023-06-26T09:14:18;101412.19;;;25.55;53.36
46303;BME280;32029;51.358;5.628;2023-06-26T09:16:45;101419.78;;;25.60;53.49
46303;BME280;32029;51.358;5.628;2023-06-26T09:19:13;101419.81;;;25.65;52.77
46303;BME280;32029;51.358;5.628;2023-06-26T09:21:43;101424.59;;;25.70;52.04
46303;BME280;32029;51.358;5.628;2023-06-26T09:24:10;101433.06;;;25.75;52.12
46303;BME280;32029;51.358;5.628;2023-06-26T09:26:39;101427.09;;;25.61;52.20
46303;BME280;32029;51.358;5.628;2023-06-26T09:29:06;101414.09;;;25.50;52.55
46303;BME280;32029;51.358;5.628;2023-06-26T09:31:38;101421.97;;;25.48;52.52
46303;BME280;32029;51.358;5.628;2023-06-26T09:34:06;101424.56;;;25.59;52.80
46303;BME280;32029;51.358;5.628;2023-06-26T09:36:34;101427.09;;;25.61;52.82
46303;BME280;32029;51.358;5.628;2023-06-26T09:39:05;101416.34;;;25.48;51.99
46303;BME280;32029;51.358;5.628;2023-06-26T09:41:36;101428.47;;;25.53;51.71
46303;BME280;32029;51.358;5.628;2023-06-26T09:44:05;101443.31;;;25.44;51.86
46303;BME280;32029;51.358;5.628;2023-06-26T09:46:33;101438.75;;;25.37;51.70
46303;BME280;32029;51.358;5.628;2023-06-26T09:49:03;101448.34;;;25.47;52.05
46303;BME280;32029;51.358;5.628;2023-06-26T09:51:31;101456.00;;;25.51;52.30
46303;BME280;32029;51.358;5.628;2023-06-26T09:53:59;101467.56;;;25.65;50.13
46303;BME280;32029;51.358;5.628;2023-06-26T09:56:28;101472.13;;;25.76;47.58
46303;BME280;32029;51.358;5.628;2023-06-26T09:58:56;101467.03;;;25.68;47.01
46303;BME280;32029;51.358;5.628;2023-06-26T10:01:25;101468.41;;;25.65;46.87
46303;BME280;32029;51.358;5.628;2023-06-26T10:03:53;101461.66;;;25.61;48.22
46303;BME280;32029;51.358;5.628;2023-06-26T10:06:26;101467.06;;;25.73;46.86
46303;BME280;32029;51.358;5.628;2023-06-26T10:08:56;101470.41;;;25.70;46.50
46303;BME280;32029;51.358;5.628;2023-06-26T10:11:32;101432.59;;;25.40;47.29
46303;BME280;32029;51.358;5.628;2023-06-26T10:14:03;101431.50;;;25.47;47.88
46303;BME280;32029;51.358;5.628;2023-06-26T10:16:31;101481.06;;;25.63;43.38
46303;BME280;32029;51.358;5.628;2023-06-26T10:19:02;101486.13;;;25.66;41.49
46303;BME280;32029;51.358;5.628;2023-06-26T10:21:31;101471.47;;;25.59;42.06
46303;BME280;32029;51.358;5.628;2023-06-26T10:24:00;101486.72;;;25.73;41.56
46303;BME280;32029;51.358;5.628;2023-06-26T10:26:30;101482.25;;;25.77;41.65
46303;BME280;32029;51.358;5.628;2023-06-26T10:28:59;101451.78;;;25.59;43.20
46303;BME280;32029;51.358;5.628;2023-06-26T10:31:28;101460.28;;;25.64;43.96
46303;BME280;32029;51.358;5.628;2023-06-26T10:33:55;101476.13;;;25.80;44.96
46303;BME280;32029;51.358;5.628;2023-06-26T10:36:30;101501.50;;;25.96;45.08
46303;BME280;32029;51.358;5.628;2023-06-26T10:39:01;101454.13;;;25.77;45.81
46303;BME280;32029;51.358;5.628;2023-06-26T10:41:38;101482.13;;;26.04;43.88
46303;BME280;32029;51.358;5.628;2023-06-26T10:44:07;101488.88;;;26.08;42.64
46303;BME280;32029;51.358;5.628;2023-06-26T10:46:49;101519.81;;;26.03;43.54
46303;BME280;32029;51.358;5.628;2023-06-26T10:49:24;101505.44;;;25.95;44.19
46303;BME280;32029;51.358;5.628;2023-06-26T10:51:51;101484.53;;;25.80;43.70
46303;BME280;32029;51.358;5.628;2023-06-26T10:54:20;101500.88;;;25.88;43.64
46303;BME280;32029;51.358;5.628;2023-06-26T10:56:51;101457.13;;;25.55;42.85
46303;BME280;32029;51.358;5.628;2023-06-26T10:59:25;101525.09;;;25.95;42.62
46303;BME280;32029;51.358;5.628;2023-06-26T11:02:04;101504.84;;;25.98;43.00
46303;BME280;32029;51.358;5.628;2023-06-26T11:07:23;101496.19;;;26.04;43.02
46303;BME280;32029;51.358;5.628;2023-06-26T11:10:00;101513.97;;;26.20;42.58
46303;BME280;32029;51.358;5.628;2023-06-26T11:12:41;101492.00;;;26.17;42.36
46303;BME280;32029;51.358;5.628;2023-06-26T11:15:17;101504.44;;;26.36;42.48
46303;BME280;32029;51.358;5.628;2023-06-26T11:17:45;101499.72;;;26.52;42.94
46303;BME280;32029;51.358;5.628;2023-06-26T11:20:15;101490.47;;;26.57;42.50
46303;BME280;32029;51.358;5.628;2023-06-26T11:22:43;101514.13;;;26.61;42.62
46303;BME280;32029;51.358;5.628;2023-06-26T11:25:10;101528.69;;;26.48;42.78
46303;BME280;32029;51.358;5.628;2023-06-26T11:27:41;101532.03;;;26.45;42.67
46303;BME280;32029;51.358;5.628;2023-06-26T11:30:11;101512.88;;;26.36;42.72
46303;BME280;32029;51.358;5.628;2023-06-26T11:32:49;101521.41;;;26.52;43.34
46303;BME280;32029;51.358;5.628;2023-06-26T11:35:25;101541.97;;;26.68;42.04
46303;BME280;32029;51.358;5.628;2023-06-26T11:38:01;101532.13;;;26.70;42.79
46303;BME280;32029;51.358;5.628;2023-06-26T11:40:33;101529.59;;;26.63;42.73
46303;BME280;32029;51.358;5.628;2023-06-26T11:43:02;101520.59;;;26.72;42.08
46303;BME280;32029;51.358;5.628;2023-06-26T11:45:32;101549.59;;;26.82;41.42
46303;BME280;32029;51.358;5.628;2023-06-26T11:48:00;101539.44;;;26.71;42.36
46303;BME280;32029;51.358;5.628;2023-06-26T11:50:28;101563.94;;;26.71;43.08
46303;BME280;32029;51.358;5.628;2023-06-26T11:52:57;101571.00;;;26.78;42.99
46303;BME280;32029;51.358;5.628;2023-06-26T11:55:26;101574.41;;;26.80;42.34
46303;BME280;32029;51.358;5.628;2023-06-26T11:57:54;101574.94;;;26.82;41.77
46303;BME280;32029;51.358;5.628;2023-06-26T12:00:21;101545.66;;;26.78;42.42
46303;BME280;32029;51.358;5.628;2023-06-26T12:02:48;101572.72;;;26.90;42.10
46303;BME280;32029;51.358;5.628;2023-06-26T12:05:17;101561.72;;;26.83;42.42
46303;BME280;32029;51.358;5.628;2023-06-26T12:07:47;101579.72;;;26.77;41.75
46303;BME280;32029;51.358;5.628;2023-06-26T12:10:16;101590.16;;;26.76;41.67
46303;BME280;32029;51.358;5.628;2023-06-26T12:12:44;101581.09;;;26.64;41.81
46303;BME280;32029;51.358;5.628;2023-06-26T12:15:16;101561.38;;;26.49;42.77
46303;BME280;32029;51.358;5.628;2023-06-26T12:17:44;101590.09;;;26.61;42.47
46303;BME280;32029;51.358;5.628;2023-06-26T12:20:22;101591.78;;;26.57;43.17
46303;BME280;32029;51.358;5.628;2023-06-26T12:22:50;101593.47;;;26.53;43.47
46303;BME280;32029;51.358;5.628;2023-06-26T12:25:22;101559.59;;;26.37;43.71
46303;BME280;32029;51.358;5.628;2023-06-26T12:27:50;101546.72;;;26.47;43.03
46303;BME280;32029;51.358;5.628;2023-06-26T12:30:17;101576.63;;;26.68;42.73
46303;BME280;32029;51.358;5.628;2023-06-26T12:32:45;101556.88;;;26.63;42.50
46303;BME280;32029;51.358;5.628;2023-06-26T12:35:14;101557.72;;;26.53;42.81
46303;BME280;32029;51.358;5.628;2023-06-26T12:37:43;101595.75;;;26.71;42.66
46303;BME280;32029;51.358;5.628;2023-06-26T12:40:19;101572.00;;;26.42;42.49
46303;BME280;32029;51.358;5.628;2023-06-26T12:42:49;101600.19;;;26.52;42.67
46303;BME280;32029;51.358;5.628;2023-06-26T12:45:16;101568.28;;;26.31;42.44
46303;BME280;32029;51.358;5.628;2023-06-26T12:47:43;101590.06;;;26.46;42.08
46303;BME280;32029;51.358;5.628;2023-06-26T12:50:12;101575.38;;;26.44;41.79
46303;BME280;32029;51.358;5.628;2023-06-26T12:52:40;101568.03;;;26.37;42.36
46303;BME280;32029;51.358;5.628;2023-06-26T12:55:07;101600.97;;;26.42;41.65
46303;BME280;32029;51.358;5.628;2023-06-26T12:57:34;101603.28;;;26.45;41.53
46303;BME280;32029;51.358;5.628;2023-06-26T13:00:02;101573.63;;;26.32;41.43
46303;BME280;32029;51.358;5.628;2023-06-26T13:02:29;101546.63;;;26.26;41.25
46303;BME280;32029;51.358;5.628;2023-06-26T13:04:56;101585.50;;;26.45;41.59
46303;BME280;32029;51.358;5.628;2023-06-26T13:07:23;101576.78;;;26.41;40.45